sensor_id;sensor_type;location;lat;lon;timestamp;P1;durP1;ratioP1;P2;durP2;ratioP2
74124;SDS011;62475;52.192;5.396;2023-07-29T00:00:19;1.95;;;0.80;;
74124;SDS011;62475;52.192;5.396;2023-07-29T00:02:44;3.65;;;1.48;;
74124;SDS011;62475;52.192;5.396;2023-07-29T00:05:10;2.90;;;1.00;;
74124;SDS011;62475;52.192;5.396;2023-07-29T00:07:35;2.37;;;0.73;;
74124;SDS011;62475;52.192;5.396;2023-07-29T00:10:00;2.70;;;0.70;;
74124;SDS011;62475;52.192;5.396;2023-07-29T00:12:25;1.93;;;0.90;;
74124;SDS011;62475;52.192;5.396;2023-07-29T00:14:50;1.57;;;0.63;;
74124;SDS011;62475;52.192;5.396;2023-07-29T00:17:16;2.93;;;1.10;;
74124;SDS011;62475;52.192;5.396;2023-07-29T00:19:41;2.03;;;0.97;;
74124;SDS011;62475;52.192;5.396;2023-07-29T00:22:06;1.70;;;0.87;;
74124;SDS011;62475;52.192;5.396;2023-07-29T00:24:33;3.33;;;0.98;;
74124;SDS011;62475;52.192;5.396;2023-07-29T00:26:58;2.13;;;1.00;;
74124;SDS011;62475;52.192;5.396;2023-07-29T00:29:23;1.93;;;0.80;;
74124;SDS011;62475;52.192;5.396;2023-07-29T00:31:49;4.00;;;0.70;;
74124;SDS011;62475;52.192;5.396;2023-07-29T00:34:14;1.47;;;0.83;;
74124;SDS011;62475;52.192;5.396;2023-07-29T00:36:43;3.00;;;1.00;;
74124;SDS011;62475;52.192;5.396;2023-07-29T00:39:09;2.63;;;0.90;;
74124;SDS011;62475;52.192;5.396;2023-07-29T00:41:34;4.15;;;1.02;;
74124;SDS011;62475;52.192;5.396;2023-07-29T00:44:00;4.30;;;0.88;;
74124;SDS011;62475;52.192;5.396;2023-07-29T00:46:26;4.00;;;1.20;;
74124;SDS011;62475;52.192;5.396;2023-07-29T00:48:52;3.65;;;1.13;;
74124;SDS011;62475;52.192;5.396;2023-07-29T00:51:17;2.70;;;1.27;;
74124;SDS011;62475;52.192;5.396;2023-07-29T00:53:43;2.83;;;0.80;;
74124;SDS011;62475;52.192;5.396;2023-07-29T00:56:08;2.83;;;1.02;;
74124;SDS011;62475;52.192;5.396;2023-07-29T00:58:33;2.88;;;1.00;;
74124;SDS011;62475;52.192;5.396;2023-07-29T01:00:59;2.00;;;1.10;;
74124;SDS011;62475;52.192;5.396;2023-07-29T01:03:24;2.20;;;1.17;;
74124;SDS011;62475;52.192;5.396;2023-07-29T01:08:21;4.18;;;1.40;;
74124;SDS011;62475;52.192;5.396;2023-07-29T01:13:25;4.67;;;1.20;;
74124;SDS011;62475;52.192;5.396;2023-07-29T01:15:55;3.75;;;1.15;;
74124;SDS011;62475;52.192;5.396;2023-07-29T01:18:25;3.75;;;1.10;;
74124;SDS011;62475;52.192;5.396;2023-07-29T01:20:53;3.33;;;1.05;;
74124;SDS011;62475;52.192;5.396;2023-07-29T01:23:25;5.95;;;1.50;;
74124;SDS011;62475;52.192;5.396;2023-07-29T01:25:50;2.13;;;1.27;;
74124;SDS011;62475;52.192;5.396;2023-07-29T01:28:15;2.80;;;1.03;;
74124;SDS011;62475;52.192;5.396;2023-07-29T01:30:41;5.73;;;1.40;;
74124;SDS011;62475;52.192;5.396;2023-07-29T01:35:35;4.57;;;1.43;;
74124;SDS011;62475;52.192;5.396;2023-07-29T01:38:14;2.58;;;1.00;;
74124;SDS011;62475;52.192;5.396;2023-07-29T01:40:41;1.88;;;1.30;;
74124;SDS011;62475;52.192;5.396;2023-07-29T01:43:07;4.18;;;1.38;;
74124;SDS011;62475;52.192;5.396;2023-07-29T01:45:33;3.13;;;1.40;;
74124;SDS011;62475;52.192;5.396;2023-07-29T01:48:02;3.35;;;1.50;;
74124;SDS011;62475;52.192;5.396;2023-07-29T01:50:28;3.75;;;1.58;;
74124;SDS011;62475;52.192;5.396;2023-07-29T01:52:53;6.13;;;1.87;;
74124;SDS011;62475;52.192;5.396;2023-07-29T01:55:18;5.23;;;2.00;;
74124;SDS011;62475;52.192;5.396;2023-07-29T01:57:43;5.40;;;2.63;;
74124;SDS011;62475;52.192;5.396;2023-07-29T02:00:09;5.80;;;2.08;;
74124;SDS011;62475;52.192;5.396;2023-07-29T02:02:35;6.88;;;2.28;;
74124;SDS011;62475;52.192;5.396;2023-07-29T02:05:00;5.63;;;2.47;;
74124;SDS011;62475;52.192;5.396;2023-07-29T02:07:25;4.73;;;2.30;;
74124;SDS011;62475;52.192;5.396;2023-07-29T02:09:51;4.70;;;2.05;;
74124;SDS011;62475;52.192;5.396;2023-07-29T02:12:18;5.40;;;2.57;;
74124;SDS011;62475;52.192;5.396;2023-07-29T02:14:43;6.30;;;2.50;;
74124;SDS011;62475;52.192;5.396;2023-07-29T02:17:08;7.27;;;3.07;;
74124;SDS011;62475;52.192;5.396;2023-07-29T02:19:34;6.40;;;2.75;;
74124;SDS011;62475;52.192;5.396;2023-07-29T02:21:59;7.53;;;2.50;;
74124;SDS011;62475;52.192;5.396;2023-07-29T02:24:24;7.17;;;2.60;;
74124;SDS011;62475;52.192;5.396;2023-07-29T02:26:49;6.47;;;3.20;;
74124;SDS011;62475;52.192;5.396;2023-07-29T02:29:15;6.47;;;3.30;;
74124;SDS011;62475;52.192;5.396;2023-07-29T02:31:40;8.67;;;3.03;;
74124;SDS011;62475;52.192;5.396;2023-07-29T02:34:05;11.30;;;3.73;;
74124;SDS011;62475;52.192;5.396;2023-07-29T02:36:30;7.90;;;3.20;;
74124;SDS011;62475;52.192;5.396;2023-07-29T02:38:55;6.23;;;3.40;;
74124;SDS011;62475;52.192;5.396;2023-07-29T02:41:21;8.98;;;4.13;;
74124;SDS011;62475;52.192;5.396;2023-07-29T02:43:49;9.45;;;3.55;;
74124;SDS011;62475;52.192;5.396;2023-07-29T02:46:15;12.52;;;3.75;;
74124;SDS011;62475;52.192;5.396;2023-07-29T02:48:41;9.15;;;3.05;;
74124;SDS011;62475;52.192;5.396;2023-07-29T02:51:06;6.63;;;3.40;;
74124;SDS011;62475;52.192;5.396;2023-07-29T02:53:32;10.57;;;3.13;;
74124;SDS011;62475;52.192;5.396;2023-07-29T02:55:57;10.55;;;3.85;;
74124;SDS011;62475;52.192;5.396;2023-07-29T02:58:22;9.52;;;3.72;;
74124;SDS011;62475;52.192;5.396;2023-07-29T03:00:47;12.00;;;4.23;;
74124;SDS011;62475;52.192;5.396;2023-07-29T03:03:13;7.05;;;3.95;;
74124;SDS011;62475;52.192;5.396;2023-07-29T03:05:39;9.55;;;3.72;;
74124;SDS011;62475;52.192;5.396;2023-07-29T03:08:05;6.65;;;3.63;;
74124;SDS011;62475;52.192;5.396;2023-07-29T03:10:30;7.28;;;3.25;;
74124;SDS011;62475;52.192;5.396;2023-07-29T03:12:56;8.00;;;3.40;;
74124;SDS011;62475;52.192;5.396;2023-07-29T03:15:24;6.03;;;3.60;;
74124;SDS011;62475;52.192;5.396;2023-07-29T03:17:52;7.97;;;3.47;;
74124;SDS011;62475;52.192;5.396;2023-07-29T03:20:18;6.10;;;3.25;;
74124;SDS011;62475;52.192;5.396;2023-07-29T03:22:44;6.93;;;3.20;;
74124;SDS011;62475;52.192;5.396;2023-07-29T03:25:09;5.60;;;3.22;;
74124;SDS011;62475;52.192;5.396;2023-07-29T03:27:35;6.47;;;2.47;;
74124;SDS011;62475;52.192;5.396;2023-07-29T03:30:02;9.30;;;3.03;;
74124;SDS011;62475;52.192;5.396;2023-07-29T03:32:27;5.68;;;3.10;;
74124;SDS011;62475;52.192;5.396;2023-07-29T03:34:52;10.70;;;2.60;;
74124;SDS011;62475;52.192;5.396;2023-07-29T03:37:17;4.97;;;2.63;;
74124;SDS011;62475;52.192;5.396;2023-07-29T03:39:43;5.40;;;2.55;;
74124;SDS011;62475;52.192;5.396;2023-07-29T03:42:08;8.60;;;2.47;;
74124;SDS011;62475;52.192;5.396;2023-07-29T03:44:33;6.33;;;2.40;;
74124;SDS011;62475;52.192;5.396;2023-07-29T03:47:00;6.70;;;2.72;;
74124;SDS011;62475;52.192;5.396;2023-07-29T03:49:25;6.10;;;2.70;;
74124;SDS011;62475;52.192;5.396;2023-07-29T03:51:50;7.57;;;2.63;;
74124;SDS011;62475;52.192;5.396;2023-07-29T03:54:16;6.87;;;2.10;;
74124;SDS011;62475;52.192;5.396;2023-07-29T03:56:41;4.17;;;2.17;;
74124;SDS011;62475;52.192;5.396;2023-07-29T03:59:06;5.67;;;2.30;;
74124;SDS011;62475;52.192;5.396;2023-07-29T04:01:31;5.40;;;1.93;;
74124;SDS011;62475;52.192;5.396;2023-07-29T04:03:57;4.47;;;2.20;;
74124;SDS011;62475;52.192;5.396;2023-07-29T04:06:22;6.30;;;2.65;;
74124;SDS011;62475;52.192;5.396;2023-07-29T04:08:49;4.30;;;1.97;;
74124;SDS011;62475;52.192;5.396;2023-07-29T04:11:14;6.90;;;3.03;;
74124;SDS011;62475;52.192;5.396;2023-07-29T04:13:39;7.07;;;2.20;;
74124;SDS011;62475;52.192;5.396;2023-07-29T04:16:05;4.78;;;2.15;;
74124;SDS011;62475;52.192;5.396;2023-07-29T04:18:30;5.35;;;1.75;;
74124;SDS011;62475;52.192;5.396;2023-07-29T04:20:56;7.10;;;2.00;;
74124;SDS011;62475;52.192;5.396;2023-07-29T04:23:21;4.87;;;1.93;;
74124;SDS011;62475;52.192;5.396;2023-07-29T04:25:49;4.43;;;2.22;;
74124;SDS011;62475;52.192;5.396;2023-07-29T04:28:17;3.67;;;1.60;;
74124;SDS011;62475;52.192;5.396;2023-07-29T04:30:42;3.85;;;2.25;;
74124;SDS011;62475;52.192;5.396;2023-07-29T04:33:07;5.50;;;2.00;;
74124;SDS011;62475;52.192;5.396;2023-07-29T04:35:34;5.83;;;2.10;;
74124;SDS011;62475;52.192;5.396;2023-07-29T04:37:59;5.15;;;2.08;;
74124;SDS011;62475;52.192;5.396;2023-07-29T04:40:24;4.77;;;1.80;;
74124;SDS011;62475;52.192;5.396;2023-07-29T04:42:50;3.60;;;2.10;;
74124;SDS011;62475;52.192;5.396;2023-07-29T04:45:16;4.43;;;2.42;;
74124;SDS011;62475;52.192;5.396;2023-07-29T04:47:41;3.57;;;1.70;;
74124;SDS011;62475;52.192;5.396;2023-07-29T04:50:07;5.72;;;2.10;;
74124;SDS011;62475;52.192;5.396;2023-07-29T04:52:32;5.10;;;2.00;;
74124;SDS011;62475;52.192;5.396;2023-07-29T04:54:57;6.23;;;2.07;;
74124;SDS011;62475;52.192;5.396;2023-07-29T04:57:22;3.37;;;1.77;;
74124;SDS011;62475;52.192;5.396;2023-07-29T04:59:48;6.57;;;2.33;;
74124;SDS011;62475;52.192;5.396;2023-07-29T05:02:13;4.13;;;2.38;;
74124;SDS011;62475;52.192;5.396;2023-07-29T05:04:38;3.67;;;2.07;;
74124;SDS011;62475;52.192;5.396;2023-07-29T05:07:04;8.27;;;2.17;;
74124;SDS011;62475;52.192;5.396;2023-07-29T05:09:30;6.10;;;2.03;;
74124;SDS011;62475;52.192;5.396;2023-07-29T05:11:55;3.53;;;1.73;;
74124;SDS011;62475;52.192;5.396;2023-07-29T05:14:20;4.40;;;1.87;;
74124;SDS011;62475;52.192;5.396;2023-07-29T05:16:45;2.93;;;1.67;;
74124;SDS011;62475;52.192;5.396;2023-07-29T05:19:10;6.60;;;2.10;;
74124;SDS011;62475;52.192;5.396;2023-07-29T05:21:37;5.68;;;2.05;;
74124;SDS011;62475;52.192;5.396;2023-07-29T05:24:02;4.72;;;2.20;;
74124;SDS011;62475;52.192;5.396;2023-07-29T05:26:28;4.28;;;2.63;;
74124;SDS011;62475;52.192;5.396;2023-07-29T05:28:53;4.07;;;1.77;;
74124;SDS011;62475;52.192;5.396;2023-07-29T05:31:20;4.15;;;1.92;;
74124;SDS011;62475;52.192;5.396;2023-07-29T05:33:45;6.43;;;3.00;;
74124;SDS011;62475;52.192;5.396;2023-07-29T05:36:10;4.80;;;2.05;;
74124;SDS011;62475;52.192;5.396;2023-07-29T05:38:35;4.37;;;2.00;;
74124;SDS011;62475;52.192;5.396;2023-07-29T05:41:00;4.37;;;2.20;;
74124;SDS011;62475;52.192;5.396;2023-07-29T05:43:26;3.97;;;2.00;;
74124;SDS011;62475;52.192;5.396;2023-07-29T05:45:51;6.93;;;2.30;;
74124;SDS011;62475;52.192;5.396;2023-07-29T05:48:16;6.30;;;2.20;;
74124;SDS011;62475;52.192;5.396;2023-07-29T05:50:42;5.67;;;2.17;;
74124;SDS011;62475;52.192;5.396;2023-07-29T05:53:07;4.80;;;2.28;;
74124;SDS011;62475;52.192;5.396;2023-07-29T05:55:32;4.70;;;2.20;;
74124;SDS011;62475;52.192;5.396;2023-07-29T05:57:57;5.23;;;2.80;;
74124;SDS011;62475;52.192;5.396;2023-07-29T06:00:23;6.32;;;2.35;;
74124;SDS011;62475;52.192;5.396;2023-07-29T06:02:48;9.02;;;2.83;;
74124;SDS011;62475;52.192;5.396;2023-07-29T06:05:13;4.83;;;3.10;;
74124;SDS011;62475;52.192;5.396;2023-07-29T06:07:38;6.90;;;2.67;;
74124;SDS011;62475;52.192;5.396;2023-07-29T06:10:03;7.00;;;3.17;;
74124;SDS011;62475;52.192;5.396;2023-07-29T06:12:29;5.93;;;3.10;;
74124;SDS011;62475;52.192;5.396;2023-07-29T06:14:54;5.30;;;2.90;;
74124;SDS011;62475;52.192;5.396;2023-07-29T06:17:19;6.17;;;2.53;;
74124;SDS011;62475;52.192;5.396;2023-07-29T06:19:44;5.73;;;2.47;;
74124;SDS011;62475;52.192;5.396;2023-07-29T06:22:10;5.47;;;2.63;;
74124;SDS011;62475;52.192;5.396;2023-07-29T06:24:35;4.00;;;2.25;;
74124;SDS011;62475;52.192;5.396;2023-07-29T06:27:00;5.03;;;2.72;;
74124;SDS011;62475;52.192;5.396;2023-07-29T06:29:25;4.80;;;2.87;;
74124;SDS011;62475;52.192;5.396;2023-07-29T06:31:50;3.80;;;2.70;;
74124;SDS011;62475;52.192;5.396;2023-07-29T06:34:16;4.90;;;2.63;;
74124;SDS011;62475;52.192;5.396;2023-07-29T06:36:41;6.05;;;2.67;;
74124;SDS011;62475;52.192;5.396;2023-07-29T06:39:06;5.80;;;2.60;;
74124;SDS011;62475;52.192;5.396;2023-07-29T06:41:32;7.63;;;2.77;;
74124;SDS011;62475;52.192;5.396;2023-07-29T06:43:57;6.83;;;2.67;;
74124;SDS011;62475;52.192;5.396;2023-07-29T06:46:22;3.93;;;2.70;;
74124;SDS011;62475;52.192;5.396;2023-07-29T06:48:47;6.07;;;3.20;;
74124;SDS011;62475;52.192;5.396;2023-07-29T06:51:12;7.17;;;3.33;;
74124;SDS011;62475;52.192;5.396;2023-07-29T06:53:39;13.55;;;4.20;;
74124;SDS011;62475;52.192;5.396;2023-07-29T06:56:04;5.03;;;2.97;;
74124;SDS011;62475;52.192;5.396;2023-07-29T06:58:30;6.50;;;2.95;;
74124;SDS011;62475;52.192;5.396;2023-07-29T07:00:56;5.03;;;2.93;;
74124;SDS011;62475;52.192;5.396;2023-07-29T07:03:21;6.93;;;3.73;;
74124;SDS011;62475;52.192;5.396;2023-07-29T07:05:49;6.88;;;3.78;;
74124;SDS011;62475;52.192;5.396;2023-07-29T07:08:14;7.03;;;4.57;;
74124;SDS011;62475;52.192;5.396;2023-07-29T07:10:40;11.63;;;4.30;;
74124;SDS011;62475;52.192;5.396;2023-07-29T07:13:05;5.30;;;3.80;;
74124;SDS011;62475;52.192;5.396;2023-07-29T07:15:30;7.27;;;4.17;;
74124;SDS011;62475;52.192;5.396;2023-07-29T07:17:56;5.32;;;3.67;;
74124;SDS011;62475;52.192;5.396;2023-07-29T07:20:22;8.53;;;4.20;;
74124;SDS011;62475;52.192;5.396;2023-07-29T07:22:47;7.23;;;5.00;;
74124;SDS011;62475;52.192;5.396;2023-07-29T07:25:12;7.20;;;4.23;;
74124;SDS011;62475;52.192;5.396;2023-07-29T07:27:37;6.40;;;3.67;;
74124;SDS011;62475;52.192;5.396;2023-07-29T07:30:03;8.33;;;4.30;;
74124;SDS011;62475;52.192;5.396;2023-07-29T07:32:28;5.43;;;3.53;;
74124;SDS011;62475;52.192;5.396;2023-07-29T07:34:53;8.47;;;4.57;;
74124;SDS011;62475;52.192;5.396;2023-07-29T07:37:18;4.03;;;3.60;;
74124;SDS011;62475;52.192;5.396;2023-07-29T07:39:43;10.17;;;4.27;;
74124;SDS011;62475;52.192;5.396;2023-07-29T07:42:09;7.60;;;4.07;;
74124;SDS011;62475;52.192;5.396;2023-07-29T07:44:34;6.53;;;4.87;;
74124;SDS011;62475;52.192;5.396;2023-07-29T07:46:59;7.95;;;5.72;;
74124;SDS011;62475;52.192;5.396;2023-07-29T07:49:28;7.15;;;5.75;;
74124;SDS011;62475;52.192;5.396;2023-07-29T07:51:53;6.22;;;4.78;;
74124;SDS011;62475;52.192;5.396;2023-07-29T07:54:18;7.30;;;5.00;;
74124;SDS011;62475;52.192;5.396;2023-07-29T07:56:44;9.20;;;5.22;;
74124;SDS011;62475;52.192;5.396;2023-07-29T07:59:09;10.63;;;6.53;;
74124;SDS011;62475;52.192;5.396;2023-07-29T08:01:36;6.70;;;4.57;;
74124;SDS011;62475;52.192;5.396;2023-07-29T08:04:01;6.35;;;4.47;;
74124;SDS011;62475;52.192;5.396;2023-07-29T08:06:26;8.48;;;4.43;;
74124;SDS011;62475;52.192;5.396;2023-07-29T08:08:52;6.17;;;4.47;;
74124;SDS011;62475;52.192;5.396;2023-07-29T08:11:17;6.83;;;4.80;;
74124;SDS011;62475;52.192;5.396;2023-07-29T08:13:42;5.47;;;4.97;;
74124;SDS011;62475;52.192;5.396;2023-07-29T08:16:08;8.67;;;5.10;;
74124;SDS011;62475;52.192;5.396;2023-07-29T08:18:34;7.88;;;5.80;;
74124;SDS011;62475;52.192;5.396;2023-07-29T08:21:00;7.37;;;4.80;;
74124;SDS011;62475;52.192;5.396;2023-07-29T08:23:33;6.38;;;4.15;;
74124;SDS011;62475;52.192;5.396;2023-07-29T08:25:59;6.80;;;4.35;;
74124;SDS011;62475;52.192;5.396;2023-07-29T08:28:28;6.15;;;4.68;;
74124;SDS011;62475;52.192;5.396;2023-07-29T08:30:53;5.80;;;5.00;;
74124;SDS011;62475;52.192;5.396;2023-07-29T08:33:19;4.95;;;4.30;;
74124;SDS011;62475;52.192;5.396;2023-07-29T08:35:44;6.10;;;4.03;;
74124;SDS011;62475;52.192;5.396;2023-07-29T08:38:09;7.93;;;4.03;;
74124;SDS011;62475;52.192;5.396;2023-07-29T08:40:35;7.17;;;3.43;;
74124;SDS011;62475;52.192;5.396;2023-07-29T08:43:03;4.55;;;2.97;;
74124;SDS011;62475;52.192;5.396;2023-07-29T08:45:29;5.20;;;3.15;;
74124;SDS011;62475;52.192;5.396;2023-07-29T08:47:56;4.07;;;2.65;;
74124;SDS011;62475;52.192;5.396;2023-07-29T08:50:22;5.68;;;3.00;;
74124;SDS011;62475;52.192;5.396;2023-07-29T08:52:52;3.58;;;2.92;;
74124;SDS011;62475;52.192;5.396;2023-07-29T08:55:18;4.97;;;3.35;;
74124;SDS011;62475;52.192;5.396;2023-07-29T08:57:45;5.57;;;3.00;;
74124;SDS011;62475;52.192;5.396;2023-07-29T09:00:11;5.88;;;3.40;;
74124;SDS011;62475;52.192;5.396;2023-07-29T09:02:36;4.85;;;3.80;;
74124;SDS011;62475;52.192;5.396;2023-07-29T09:05:01;7.22;;;3.40;;
74124;SDS011;62475;52.192;5.396;2023-07-29T09:07:27;6.75;;;3.83;;
74124;SDS011;62475;52.192;5.396;2023-07-29T09:09:53;5.70;;;3.67;;
74124;SDS011;62475;52.192;5.396;2023-07-29T09:12:18;4.20;;;3.40;;
74124;SDS011;62475;52.192;5.396;2023-07-29T09:14:44;5.22;;;3.72;;
74124;SDS011;62475;52.192;5.396;2023-07-29T09:17:09;4.43;;;3.08;;
74124;SDS011;62475;52.192;5.396;2023-07-29T09:19:34;5.40;;;3.60;;
74124;SDS011;62475;52.192;5.396;2023-07-29T09:22:00;5.80;;;4.00;;
74124;SDS011;62475;52.192;5.396;2023-07-29T09:24:25;4.50;;;3.40;;
74124;SDS011;62475;52.192;5.396;2023-07-29T09:26:54;7.25;;;3.30;;
74124;SDS011;62475;52.192;5.396;2023-07-29T09:29:23;5.28;;;3.17;;
74124;SDS011;62475;52.192;5.396;2023-07-29T09:31:49;4.45;;;3.22;;
74124;SDS011;62475;52.192;5.396;2023-07-29T09:34:15;6.10;;;3.25;;
74124;SDS011;62475;52.192;5.396;2023-07-29T09:36:40;5.28;;;2.92;;
74124;SDS011;62475;52.192;5.396;2023-07-29T09:39:10;4.38;;;3.47;;
74124;SDS011;62475;52.192;5.396;2023-07-29T09:41:35;3.97;;;3.58;;
74124;SDS011;62475;52.192;5.396;2023-07-29T09:44:04;3.80;;;3.05;;
74124;SDS011;62475;52.192;5.396;2023-07-29T09:46:33;4.80;;;2.60;;
74124;SDS011;62475;52.192;5.396;2023-07-29T09:48:59;5.80;;;2.80;;
74124;SDS011;62475;52.192;5.396;2023-07-29T09:51:24;5.47;;;2.58;;
74124;SDS011;62475;52.192;5.396;2023-07-29T09:53:50;8.77;;;4.23;;
74124;SDS011;62475;52.192;5.396;2023-07-29T09:56:16;4.50;;;2.80;;
74124;SDS011;62475;52.192;5.396;2023-07-29T09:58:42;3.13;;;2.63;;
74124;SDS011;62475;52.192;5.396;2023-07-29T10:01:07;4.82;;;3.10;;
74124;SDS011;62475;52.192;5.396;2023-07-29T10:03:33;5.40;;;4.25;;
74124;SDS011;62475;52.192;5.396;2023-07-29T10:06:05;3.97;;;3.10;;
74124;SDS011;62475;52.192;5.396;2023-07-29T10:08:31;5.05;;;2.70;;
74124;SDS011;62475;52.192;5.396;2023-07-29T10:11:10;3.58;;;3.13;;
74124;SDS011;62475;52.192;5.396;2023-07-29T10:13:35;5.25;;;3.53;;
74124;SDS011;62475;52.192;5.396;2023-07-29T10:16:01;4.65;;;3.00;;
74124;SDS011;62475;52.192;5.396;2023-07-29T10:18:30;3.55;;;2.80;;
74124;SDS011;62475;52.192;5.396;2023-07-29T10:20:56;5.07;;;2.95;;
74124;SDS011;62475;52.192;5.396;2023-07-29T10:23:22;5.35;;;2.35;;
74124;SDS011;62475;52.192;5.396;2023-07-29T10:25:54;4.07;;;2.35;;
74124;SDS011;62475;52.192;5.396;2023-07-29T10:28:20;3.70;;;2.22;;
74124;SDS011;62475;52.192;5.396;2023-07-29T10:30:46;5.50;;;2.70;;
74124;SDS011;62475;52.192;5.396;2023-07-29T10:33:11;5.03;;;2.38;;
74124;SDS011;62475;52.192;5.396;2023-07-29T10:35:36;7.23;;;2.67;;
74124;SDS011;62475;52.192;5.396;2023-07-29T10:38:02;4.75;;;3.20;;
74124;SDS011;62475;52.192;5.396;2023-07-29T10:40:47;3.88;;;3.22;;
74124;SDS011;62475;52.192;5.396;2023-07-29T10:43:13;3.80;;;3.08;;
74124;SDS011;62475;52.192;5.396;2023-07-29T10:45:43;3.20;;;2.90;;
74124;SDS011;62475;52.192;5.396;2023-07-29T10:48:11;5.18;;;3.20;;
74124;SDS011;62475;52.192;5.396;2023-07-29T10:50:37;4.95;;;3.85;;
74124;SDS011;62475;52.192;5.396;2023-07-29T10:53:02;7.47;;;3.17;;
74124;SDS011;62475;52.192;5.396;2023-07-29T10:55:35;5.03;;;3.40;;
74124;SDS011;62475;52.192;5.396;2023-07-29T10:58:04;4.00;;;2.97;;
74124;SDS011;62475;52.192;5.396;2023-07-29T11:00:30;7.38;;;4.30;;
74124;SDS011;62475;52.192;5.396;2023-07-29T11:03:00;7.82;;;4.57;;
74124;SDS011;62475;52.192;5.396;2023-07-29T11:05:26;7.40;;;4.57;;
74124;SDS011;62475;52.192;5.396;2023-07-29T11:07:51;6.47;;;4.97;;
74124;SDS011;62475;52.192;5.396;2023-07-29T11:10:16;8.60;;;5.10;;
74124;SDS011;62475;52.192;5.396;2023-07-29T11:12:46;8.30;;;5.60;;
74124;SDS011;62475;52.192;5.396;2023-07-29T11:15:20;6.78;;;5.32;;
74124;SDS011;62475;52.192;5.396;2023-07-29T11:20:11;7.13;;;5.93;;
74124;SDS011;62475;52.192;5.396;2023-07-29T11:22:37;8.57;;;6.10;;
74124;SDS011;62475;52.192;5.396;2023-07-29T11:25:02;11.00;;;6.63;;
74124;SDS011;62475;52.192;5.396;2023-07-29T11:27:28;7.10;;;5.30;;
74124;SDS011;62475;52.192;5.396;2023-07-29T11:29:59;4.73;;;3.80;;
74124;SDS011;62475;52.192;5.396;2023-07-29T11:32:25;5.00;;;3.00;;
74124;SDS011;62475;52.192;5.396;2023-07-29T11:34:51;3.97;;;2.60;;
74124;SDS011;62475;52.192;5.396;2023-07-29T11:37:17;3.13;;;2.38;;
74124;SDS011;62475;52.192;5.396;2023-07-29T11:39:43;3.58;;;2.00;;
74124;SDS011;62475;52.192;5.396;2023-07-29T11:42:12;3.20;;;1.90;;
74124;SDS011;62475;52.192;5.396;2023-07-29T11:44:39;2.55;;;1.55;;
74124;SDS011;62475;52.192;5.396;2023-07-29T11:47:11;3.27;;;2.33;;
74124;SDS011;62475;52.192;5.396;2023-07-29T11:49:38;3.05;;;1.77;;
74124;SDS011;62475;52.192;5.396;2023-07-29T11:52:03;2.35;;;1.30;;
74124;SDS011;62475;52.192;5.396;2023-07-29T11:54:28;2.03;;;1.50;;
74124;SDS011;62475;52.192;5.396;2023-07-29T11:56:54;2.97;;;1.23;;
74124;SDS011;62475;52.192;5.396;2023-07-29T11:59:20;1.80;;;1.40;;
74124;SDS011;62475;52.192;5.396;2023-07-29T12:01:45;2.47;;;1.33;;
74124;SDS011;62475;52.192;5.396;2023-07-29T12:04:10;1.92;;;1.10;;
74124;SDS011;62475;52.192;5.396;2023-07-29T12:06:36;3.42;;;1.33;;
74124;SDS011;62475;52.192;5.396;2023-07-29T12:09:02;3.05;;;1.70;;
74124;SDS011;62475;52.192;5.396;2023-07-29T12:11:27;3.25;;;1.30;;
74124;SDS011;62475;52.192;5.396;2023-07-29T12:13:53;4.32;;;3.03;;
74124;SDS011;62475;52.192;5.396;2023-07-29T12:16:19;1.95;;;1.40;;
74124;SDS011;62475;52.192;5.396;2023-07-29T12:18:44;2.65;;;1.27;;
74124;SDS011;62475;52.192;5.396;2023-07-29T12:21:09;2.37;;;0.90;;
74124;SDS011;62475;52.192;5.396;2023-07-29T12:23:34;1.48;;;1.10;;
74124;SDS011;62475;52.192;5.396;2023-07-29T12:26:00;2.67;;;0.90;;
74124;SDS011;62475;52.192;5.396;2023-07-29T12:28:26;1.30;;;1.00;;
74124;SDS011;62475;52.192;5.396;2023-07-29T12:30:54;2.63;;;1.23;;
74124;SDS011;62475;52.192;5.396;2023-07-29T12:33:29;2.30;;;0.90;;
74124;SDS011;62475;52.192;5.396;2023-07-29T12:35:54;2.70;;;1.10;;
74124;SDS011;62475;52.192;5.396;2023-07-29T12:38:23;1.30;;;0.67;;
74124;SDS011;62475;52.192;5.396;2023-07-29T12:40:50;1.70;;;1.15;;
74124;SDS011;62475;52.192;5.396;2023-07-29T12:43:15;2.07;;;1.20;;
74124;SDS011;62475;52.192;5.396;2023-07-29T12:45:41;2.05;;;1.20;;
74124;SDS011;62475;52.192;5.396;2023-07-29T12:48:07;3.20;;;1.35;;
74124;SDS011;62475;52.192;5.396;2023-07-29T12:50:35;2.30;;;1.27;;
74124;SDS011;62475;52.192;5.396;2023-07-29T12:53:00;1.58;;;1.02;;
74124;SDS011;62475;52.192;5.396;2023-07-29T12:55:26;2.30;;;1.57;;
74124;SDS011;62475;52.192;5.396;2023-07-29T12:57:51;2.23;;;1.53;;
74124;SDS011;62475;52.192;5.396;2023-07-29T13:00:17;2.42;;;1.50;;
74124;SDS011;62475;52.192;5.396;2023-07-29T13:02:42;2.85;;;1.25;;
74124;SDS011;62475;52.192;5.396;2023-07-29T13:05:10;2.40;;;1.45;;
74124;SDS011;62475;52.192;5.396;2023-07-29T13:07:37;3.03;;;1.40;;
74124;SDS011;62475;52.192;5.396;2023-07-29T13:10:02;2.88;;;1.50;;
74124;SDS011;62475;52.192;5.396;2023-07-29T13:12:28;1.73;;;1.20;;
74124;SDS011;62475;52.192;5.396;2023-07-29T13:14:53;3.00;;;1.40;;
74124;SDS011;62475;52.192;5.396;2023-07-29T13:17:18;2.77;;;1.50;;
74124;SDS011;62475;52.192;5.396;2023-07-29T13:19:43;1.60;;;1.30;;
74124;SDS011;62475;52.192;5.396;2023-07-29T13:22:08;2.80;;;1.23;;
74124;SDS011;62475;52.192;5.396;2023-07-29T13:24:34;1.77;;;1.10;;
74124;SDS011;62475;52.192;5.396;2023-07-29T13:26:59;2.43;;;1.50;;
74124;SDS011;62475;52.192;5.396;2023-07-29T13:29:24;2.37;;;1.27;;
74124;SDS011;62475;52.192;5.396;2023-07-29T13:31:50;2.50;;;1.25;;
74124;SDS011;62475;52.192;5.396;2023-07-29T13:34:15;1.20;;;0.90;;
74124;SDS011;62475;52.192;5.396;2023-07-29T13:36:41;2.25;;;1.90;;
74124;SDS011;62475;52.192;5.396;2023-07-29T13:39:06;2.03;;;1.20;;
74124;SDS011;62475;52.192;5.396;2023-07-29T13:41:31;2.20;;;1.30;;
74124;SDS011;62475;52.192;5.396;2023-07-29T13:43:56;3.47;;;1.52;;
74124;SDS011;62475;52.192;5.396;2023-07-29T13:46:22;2.47;;;1.40;;
74124;SDS011;62475;52.192;5.396;2023-07-29T13:48:47;2.30;;;1.50;;
74124;SDS011;62475;52.192;5.396;2023-07-29T13:51:12;3.63;;;2.40;;
74124;SDS011;62475;52.192;5.396;2023-07-29T13:53:37;2.00;;;1.40;;
74124;SDS011;62475;52.192;5.396;2023-07-29T13:56:03;1.85;;;1.35;;
74124;SDS011;62475;52.192;5.396;2023-07-29T13:58:29;2.92;;;1.40;;
74124;SDS011;62475;52.192;5.396;2023-07-29T14:00:54;1.85;;;1.10;;
74124;SDS011;62475;52.192;5.396;2023-07-29T14:03:19;3.40;;;1.37;;
74124;SDS011;62475;52.192;5.396;2023-07-29T14:05:45;1.70;;;1.20;;
74124;SDS011;62475;52.192;5.396;2023-07-29T14:08:10;2.30;;;1.30;;
74124;SDS011;62475;52.192;5.396;2023-07-29T14:10:35;2.27;;;1.60;;
74124;SDS011;62475;52.192;5.396;2023-07-29T14:13:01;3.10;;;2.00;;
74124;SDS011;62475;52.192;5.396;2023-07-29T14:15:26;2.77;;;1.80;;
74124;SDS011;62475;52.192;5.396;2023-07-29T14:17:53;4.07;;;1.40;;
74124;SDS011;62475;52.192;5.396;2023-07-29T14:20:18;2.07;;;1.60;;
74124;SDS011;62475;52.192;5.396;2023-07-29T14:22:44;2.33;;;1.63;;
74124;SDS011;62475;52.192;5.396;2023-07-29T14:25:09;2.27;;;1.37;;
74124;SDS011;62475;52.192;5.396;2023-07-29T14:27:34;3.17;;;1.35;;
74124;SDS011;62475;52.192;5.396;2023-07-29T14:29:59;2.37;;;1.20;;
74124;SDS011;62475;52.192;5.396;2023-07-29T14:32:25;2.80;;;1.20;;
74124;SDS011;62475;52.192;5.396;2023-07-29T14:34:50;3.00;;;1.10;;
74124;SDS011;62475;52.192;5.396;2023-07-29T14:37:15;2.17;;;1.20;;
74124;SDS011;62475;52.192;5.396;2023-07-29T14:39:40;2.73;;;1.20;;
74124;SDS011;62475;52.192;5.396;2023-07-29T14:42:06;2.43;;;1.27;;
74124;SDS011;62475;52.192;5.396;2023-07-29T14:44:32;2.13;;;1.15;;
74124;SDS011;62475;52.192;5.396;2023-07-29T14:46:58;2.50;;;0.90;;
74124;SDS011;62475;52.192;5.396;2023-07-29T14:49:23;1.50;;;0.80;;